Spaceon02064 — ASD — position and weather

sailwx.info

Track history (hours):
 
Tides and Currents Weather Stations Pressure Air Temp Water Temp Dewpoint Dewpoint Depression Visibility Wind Speed Wind Dir Waves Ship Positions

Spaceon02064

Last reported at 2015-May-24 14:33 UTC. Time now 2015-May-24 15:14 UTC.
Position N 32°00' E 120°49'.

Length 6 m.

Type: Ship. MMSI: 200902064.

Date/timePositionNaut miles runAvg speedWind from/ knotsBaromVisibWave heightAir tempDewpointWater temp
2015-May-24 14:33N 32°00' E 120°49'0 0.0
2015-May-24 13:33N 32°00' E 120°49'0 0.0
2015-May-24 12:31N 32°00' E 120°49'0 0.0
2015-May-24 11:33N 32°00' E 120°49'0 0.0
2015-May-24 10:33N 32°00' E 120°49'58136.2
2015-May-24 10:08N 31°17' E 121°34'5896.1
2015-May-24 09:32N 32°00' E 120°49'4787350.4
2015-May-24 09:28N 24°24' E 118°07'4512075.3
2015-May-24 09:15N 31°17' E 121°34'5882.6
2015-May-24 08:33N 32°00' E 120°49'477286084.9
2015-May-24 08:33N 24°26' E 118°06'451943.5
2015-May-24 08:04N 31°17' E 121°34'451863.1
2015-May-24 07:33N 24°26' E 118°06'427255957.7
2015-May-24 07:33N 30°57' E 121°17'6713393.7
2015-May-24 07:33N 32°00' E 120°49'58267.1
2015-May-24 07:20N 31°17' E 121°34'452569.3
2015-May-24 06:32N 24°24' E 118°06'47815363.2
2015-May-24 06:30N 32°00' E 120°49'58827.9
2015-May-24 06:26N 31°17' E 121°34'5865.7
2015-May-24 05:33N 32°00' E 120°49'58298.1
2015-May-24 05:22N 31°17' E 121°34'5871.7
2015-May-24 04:33N 32°00' E 120°49'58357.6
2015-May-24 04:24N 31°17' E 121°34'5868.9
2015-May-24 03:33N 32°00' E 120°49'58486.6
2015-May-24 03:26N 31°17' E 121°34'5864.9
2015-May-24 02:33N 32°00' E 120°49'0 0.0
2015-May-24 01:33N 32°00' E 120°49'0 0.0
2015-May-24 00:32N 32°00' E 120°49'0 0.0
2015-May-23 23:33N 32°00' E 120°49'0 0.0
2015-May-23 22:33N 32°00' E 120°49'0 0.0
2015-May-23 21:33N 32°00' E 120°49'0 0.0
2015-May-23 20:32N 32°00' E 120°49'0 0.0
2015-May-23 19:30N 32°00' E 120°49'0 0.0
2015-May-23 18:32N 32°00' E 120°49'0 0.0
2015-May-23 17:32N 32°00' E 120°49'0 0.0
2015-May-23 16:33N 32°00' E 120°49'4791205.4
2015-May-23 16:09N 24°23' E 118°08'479796.7
2015-May-23 15:33N 32°00' E 120°49'0 0.0
2015-May-23 14:33N 32°00' E 120°49'0 0.0
2015-May-23 13:32N 32°00' E 120°49'0 0.0
2015-May-23 12:33N 32°00' E 120°49'6666.5
2015-May-23 11:33N 31°15' E 121°46'61203.5
2015-May-23 11:15N 31°56' E 120°53'5375.9
2015-May-23 10:33N 31°21' E 121°39'617.1
2015-May-23 10:13N 31°17' E 121°34'0 0.0
2015-May-23 08:12N 31°17' E 121°34'5 6.2
2015-May-23 07:29N 31°15' E 121°29'2223.4
2015-May-23 06:34N 31°34' E 121°19'22605.6
2015-May-23 06:31N 31°17' E 121°34'1616.0
2015-May-23 05:33N 31°31' E 121°25'9 6.8
2015-May-23 04:17N 31°24' E 121°31'3 3.8
2015-May-23 03:33N 31°26' E 121°29'314.4
2015-May-23 03:21N 31°25' E 121°32'8107.5
2015-May-23 03:17N 31°17' E 121°34'811.6
2015-May-23 02:33N 31°25' E 121°32'844.3
2015-May-23 02:22N 31°17' E 121°34'7 8.2
2015-May-23 01:33N 31°23' E 121°30'781.4
2015-May-23 01:28N 31°17' E 121°34'0 0.0
2015-May-23 00:27N 31°17' E 121°34'0 0.0
2015-May-22 23:32N 31°17' E 121°34'221099.3
2015-May-22 23:31N 30°59' E 121°20'6 6.3
2015-May-22 22:33N 30°58' E 121°13'26970.8
2015-May-22 22:32N 31°17' E 121°34'2220.9
2015-May-22 21:30N 30°59' E 121°20'22262.3
2015-May-22 21:25N 31°17' E 121°34'0 0.0
2015-May-22 20:26N 31°17' E 121°34'0 0.0
2015-May-22 17:25N 31°17' E 121°34'3 3.4
2015-May-22 16:24N 31°20' E 121°33'3107.5
2015-May-22 16:22N 31°17' E 121°34'627.9
2015-May-22 16:09N 31°22' E 121°30'0 0.2
2015-May-22 15:33N 31°22' E 121°30'2523.4
2015-May-22 14:28N 30°59' E 121°19'2360.7
2015-May-22 14:05N 31°18' E 121°34'3 4.5
2015-May-22 13:31N 31°20' E 121°33'4 3.8
2015-May-22 12:32N 31°23' E 121°30'6 6.5
2015-May-22 11:33N 31°29' E 121°26'7 6.7
2015-May-22 10:33N 31°34' E 121°22'4 4.4
2015-May-22 09:33N 31°38' E 121°21'0 0.2
2015-May-22 08:33N 31°39' E 121°21'0 0.0
2015-May-22 07:33N 31°39' E 121°21'0 0.0
2015-May-22 06:33N 31°39' E 121°21'0 0.0
2015-May-22 05:34N 31°39' E 121°21'949.3
2015-May-22 05:22N 31°29' E 121°24'911.7
2015-May-22 04:33N 31°39' E 121°21'0 0.0
2015-May-22 03:33N 31°39' E 121°21'0 0.0
2015-May-22 02:33N 31°39' E 121°21'0 0.0
2015-May-22 01:33N 31°39' E 121°21'25114.2
2015-May-22 01:20N 31°15' E 121°30'2532.0
2015-May-22 00:33N 31°39' E 121°21'117 7.2
2015-May-21 08:13N 29°47' E 122°04'7 9.0
2015-May-21 07:28N 29°53' E 122°09'7 7.9
2015-May-21 06:33N 29°58' E 122°03'7311.4
2015-May-21 00:08N 31°05' E 121°28'28 7.1
2015-May-20 20:15N 31°05' E 122°00'6 8.6
2015-May-20 19:33N 31°08' E 121°54'7 6.7
2015-May-20 18:33N 31°12' E 121°48'1 1.1
2015-May-20 17:33N 31°13' E 121°47'0 0.0
2015-May-20 16:33N 31°13' E 121°47'1 0.8
2015-May-20 15:33N 31°14' E 121°47'5 5.2
2015-May-20 14:32N 31°18' E 121°43'8 8.1
2015-May-20 13:32N 31°23' E 121°35'5926.5
2015-May-20 11:18N 32°00' E 120°41'47354.1
2015-May-20 02:33N 24°26' E 118°10'6 5.6
2015-May-20 01:33N 24°30' E 118°15'8 6.5
2015-May-20 00:15N 24°32' E 118°24'42955.7
2015-May-19 16:33N 31°09' E 121°27'6 4.9
2015-May-19 15:22N 31°15' E 121°30'4 4.7
2015-May-19 14:29N 31°17' E 121°34'6 3.2
2015-May-19 12:33N 31°22' E 121°30'4 3.8
2015-May-19 11:28N 31°26' E 121°29'8113.6
2015-May-19 05:31N 31°58' E 120°02'7273.2
2015-May-19 04:33N 31°33' E 121°21'6816383.6
2015-May-19 04:32N 31°58' E 120°06'3 3.1
2015-May-19 03:34N 31°57' E 120°10'37811.9
2015-May-19 03:31N 31°54' E 120°53'40187.1
2015-May-19 03:18N 31°28' E 121°28'4864.8
2015-May-19 02:34N 32°00' E 120°47'324617.2
2015-May-19 02:33N 31°57' E 120°10'773626.4
2015-May-19 02:32N 31°23' E 121°30'7778.3
2015-May-19 01:33N 31°57' E 120°10'0 0.0
2015-May-19 00:33N 31°57' E 120°10'0 0.0
2015-May-18 23:32N 31°57' E 120°10'8112223.3
2015-May-18 23:32N 31°10' E 121°28'8283.6
2015-May-18 22:33N 31°57' E 120°09'87225.8
2015-May-18 22:10N 31°01' E 121°27'87141.8
2015-May-18 21:33N 31°57' E 120°09'0 0.0
2015-May-18 20:34N 31°57' E 120°09'4 4.4
2015-May-18 19:33N 31°57' E 120°15'7636.0
2015-May-18 17:27N 31°26' E 121°36'7381.2
2015-May-18 16:32N 31°57' E 120°18'11139.6
2015-May-18 16:27N 32°01' E 120°31'1920.8
2015-May-18 15:33N 31°56' E 120°10'8382.7
2015-May-18 14:33N 30°59' E 121°20'7013.7
2015-May-18 09:28N 32°01' E 120°43'5 4.7
2015-May-18 08:28N 32°01' E 120°49'7 5.6
2015-May-18 07:11N 31°55' E 120°53'5 6.7
2015-May-18 06:24N 31°49' E 120°55'21 7.4
2015-May-18 03:33N 31°38' E 121°16'3232.7
2015-May-18 02:33N 31°17' E 121°45'266699.7
2015-May-18 02:33N 31°33' E 121°21'3535.0
2015-May-18 01:33N 31°10' E 121°52'30403.7
2015-May-18 01:29N 31°30' E 121°26'3 3.2
2015-May-18 00:33N 31°28' E 121°28'2 2.4
2015-May-17 23:33N 31°26' E 121°29'0 0.0
2015-May-17 22:33N 31°26' E 121°29'0 0.0
2015-May-17 21:33N 31°26' E 121°29'0 0.0
2015-May-17 20:33N 31°26' E 121°29'0 0.0
2015-May-17 19:33N 31°26' E 121°29'0 0.0
2015-May-17 18:33N 31°26' E 121°29'0 0.0
2015-May-17 17:33N 31°26' E 121°29'0 0.0
2015-May-17 16:33N 31°26' E 121°29'0 0.0
2015-May-17 15:33N 31°26' E 121°29'0 0.0
2015-May-17 14:33N 31°26' E 121°29'0 0.0
2015-May-17 13:33N 31°26' E 121°29'0 0.0
2015-May-17 12:32N 31°26' E 121°29'0 0.0
2015-May-17 11:33N 31°26' E 121°29'0 0.0
2015-May-17 10:33N 31°26' E 121°29'0 0.0
2015-May-17 09:32N 31°26' E 121°29'0 0.0
2015-May-17 08:31N 31°26' E 121°29'0 0.0
2015-May-17 07:33N 31°26' E 121°29'0 0.0
2015-May-17 06:33N 31°26' E 121°29'0 0.0
2015-May-17 05:33N 31°26' E 121°29'0 0.0
2015-May-17 04:33N 31°26' E 121°29'0 0.0
2015-May-17 03:32N 31°26' E 121°29'0 0.0
2015-May-17 02:30N 31°26' E 121°29'316.3
2015-May-17 02:17N 31°25' E 121°33'3 4.6
2015-May-17 01:33N 31°26' E 121°29'1918.9
2015-May-17 00:33N 31°15' E 121°47'192501.3
2015-May-17 00:33N 31°26' E 121°29'0 0.0
2015-May-16 23:33N 31°26' E 121°29'27892.7
2015-May-16 23:31N 31°09' E 121°54'2727.9
2015-May-16 22:33N 31°26' E 121°29'2 1.7
2015-May-16 21:16N 31°24' E 121°31'4 5.2
2015-May-16 20:32N 31°22' E 121°28'0 0.0
2015-May-16 19:33N 31°22' E 121°28'0 0.0
2015-May-16 18:33N 31°22' E 121°28'0 0.0
2015-May-16 17:32N 31°22' E 121°28'0 0.0
2015-May-16 16:32N 31°22' E 121°28'0 0.0
2015-May-16 15:33N 31°22' E 121°28'0 0.1
2015-May-16 14:31N 31°22' E 121°28'0 0.4
2015-May-16 13:33N 31°21' E 121°27'0 0.0
2015-May-16 12:33N 31°21' E 121°27'0 0.0
2015-May-16 11:33N 31°21' E 121°27'0 0.0
2015-May-16 10:33N 31°21' E 121°27'0 0.0
2015-May-16 09:33N 31°21' E 121°27'86376.3
2015-May-16 09:20N 29°58' E 121°50'86111.3
2015-May-16 08:33N 31°21' E 121°27'0 0.0
2015-May-16 07:33N 31°21' E 121°27'36807.9
2015-May-16 07:30N 31°03' E 122°03'1111.2
2015-May-16 06:33N 31°09' E 121°53'2545433.9
2015-May-16 06:33N 31°21' E 121°27'0 0.1
2015-May-16 05:33N 31°21' E 121°27'0 0.0
2015-May-16 04:33N 31°21' E 121°27'0 0.0
2015-May-16 03:33N 31°21' E 121°27'1 0.7
2015-May-16 02:33N 31°22' E 121°28'3 3.3
2015-May-16 01:31N 31°24' E 121°31'0 0.0
2015-May-16 00:33N 31°24' E 121°31'14359.1
2015-May-16 00:30N 31°17' E 121°44'0 0.0
2015-May-15 23:33N 31°17' E 121°44'141516.7
2015-May-15 23:33N 31°24' E 121°31'9394.6
2015-May-15 22:33N 29°56' E 122°05'9686180.2
2015-May-15 22:33N 31°26' E 121°29'7 7.3
2015-May-15 21:33N 31°31' E 121°22'109281.4
2015-May-15 21:10N 29°48' E 122°05'119123.6
2015-May-15 20:12N 31°38' E 121°14'2373402.6
2015-May-15 14:18N 31°50' E 167°44'23861143.8
2015-May-15 12:13N 31°50' E 120°56'35591.7
2015-May-15 08:21N 37°44' E 121°20'7 3.1
2015-May-15 06:10N 37°47' E 121°28'6 1.9
2015-May-15 03:08N 37°50' E 121°22'35396.6
2015-May-14 23:29N 31°57' E 120°51'352968.4
2015-May-14 23:07N 37°48' E 121°22'349615.6
2015-May-14 22:33N 32°00' E 120°46'19 6.2
2015-May-14 19:30N 31°60' E 120°23'5 5.0
2015-May-14 18:33N 31°58' E 120°19'5 4.6
2015-May-14 17:33N 31°56' E 120°14'4 4.4
2015-May-14 16:33N 31°56' E 120°08'4841724.8
2015-May-14 16:17N 24°03' E 118°08'485637.2
2015-May-14 15:31N 31°58' E 120°02'48318311.5
2015-May-14 15:29N 24°04' E 118°11'  
Track history (hours):
 
Tides and Currents Weather Stations Pressure Air Temp Water Temp Dewpoint Dewpoint Depression Visibility Wind Speed Wind Dir Waves Ship Positions

Spaceon02064

Last reported at 2015-May-24 14:33 UTC. Time now 2015-May-24 15:14 UTC.
Position N 32°00' E 120°49'.

Length 6 m.

Type: Ship. MMSI: 200902064.

Date/timePositionNaut miles runAvg speedWind from/ knotsBaromVisibWave heightAir tempDewpointWater temp
2015-May-24 14:33N 32°00' E 120°49'0 0.0
2015-May-24 13:33N 32°00' E 120°49'0 0.0
2015-May-24 12:31N 32°00' E 120°49'0 0.0
2015-May-24 11:33N 32°00' E 120°49'0 0.0
2015-May-24 10:33N 32°00' E 120°49'58136.2
2015-May-24 10:08N 31°17' E 121°34'5896.1
2015-May-24 09:32N 32°00' E 120°49'4787350.4
2015-May-24 09:28N 24°24' E 118°07'4512075.3
2015-May-24 09:15N 31°17' E 121°34'5882.6
2015-May-24 08:33N 32°00' E 120°49'477286084.9
2015-May-24 08:33N 24°26' E 118°06'451943.5
2015-May-24 08:04N 31°17' E 121°34'451863.1
2015-May-24 07:33N 24°26' E 118°06'427255957.7
2015-May-24 07:33N 30°57' E 121°17'6713393.7
2015-May-24 07:33N 32°00' E 120°49'58267.1
2015-May-24 07:20N 31°17' E 121°34'452569.3
2015-May-24 06:32N 24°24' E 118°06'47815363.2
2015-May-24 06:30N 32°00' E 120°49'58827.9
2015-May-24 06:26N 31°17' E 121°34'5865.7
2015-May-24 05:33N 32°00' E 120°49'58298.1
2015-May-24 05:22N 31°17' E 121°34'5871.7
2015-May-24 04:33N 32°00' E 120°49'58357.6
2015-May-24 04:24N 31°17' E 121°34'5868.9
2015-May-24 03:33N 32°00' E 120°49'58486.6
2015-May-24 03:26N 31°17' E 121°34'5864.9
2015-May-24 02:33N 32°00' E 120°49'0 0.0
2015-May-24 01:33N 32°00' E 120°49'0 0.0
2015-May-24 00:32N 32°00' E 120°49'0 0.0
2015-May-23 23:33N 32°00' E 120°49'0 0.0
2015-May-23 22:33N 32°00' E 120°49'0 0.0
2015-May-23 21:33N 32°00' E 120°49'0 0.0
2015-May-23 20:32N 32°00' E 120°49'0 0.0
2015-May-23 19:30N 32°00' E 120°49'0 0.0
2015-May-23 18:32N 32°00' E 120°49'0 0.0
2015-May-23 17:32N 32°00' E 120°49'0 0.0
2015-May-23 16:33N 32°00' E 120°49'4791205.4
2015-May-23 16:09N 24°23' E 118°08'479796.7
2015-May-23 15:33N 32°00' E 120°49'0 0.0
2015-May-23 14:33N 32°00' E 120°49'0 0.0
2015-May-23 13:32N 32°00' E 120°49'0 0.0
2015-May-23 12:33N 32°00' E 120°49'6666.5
2015-May-23 11:33N 31°15' E 121°46'61203.5
2015-May-23 11:15N 31°56' E 120°53'5375.9
2015-May-23 10:33N 31°21' E 121°39'617.1
2015-May-23 10:13N 31°17' E 121°34'0 0.0
2015-May-23 08:12N 31°17' E 121°34'5 6.2
2015-May-23 07:29N 31°15' E 121°29'2223.4
2015-May-23 06:34N 31°34' E 121°19'22605.6
2015-May-23 06:31N 31°17' E 121°34'1616.0
2015-May-23 05:33N 31°31' E 121°25'9 6.8
2015-May-23 04:17N 31°24' E 121°31'3 3.8
2015-May-23 03:33N 31°26' E 121°29'314.4
2015-May-23 03:21N 31°25' E 121°32'8107.5
2015-May-23 03:17N 31°17' E 121°34'811.6
2015-May-23 02:33N 31°25' E 121°32'844.3
2015-May-23 02:22N 31°17' E 121°34'7 8.2
2015-May-23 01:33N 31°23' E 121°30'781.4
2015-May-23 01:28N 31°17' E 121°34'0 0.0
2015-May-23 00:27N 31°17' E 121°34'0 0.0
2015-May-22 23:32N 31°17' E 121°34'221099.3
2015-May-22 23:31N 30°59' E 121°20'6 6.3
2015-May-22 22:33N 30°58' E 121°13'26970.8
2015-May-22 22:32N 31°17' E 121°34'2220.9
2015-May-22 21:30N 30°59' E 121°20'22262.3
2015-May-22 21:25N 31°17' E 121°34'0 0.0
2015-May-22 20:26N 31°17' E 121°34'0 0.0
2015-May-22 17:25N 31°17' E 121°34'3 3.4
2015-May-22 16:24N 31°20' E 121°33'3107.5
2015-May-22 16:22N 31°17' E 121°34'627.9
2015-May-22 16:09N 31°22' E 121°30'0 0.2
2015-May-22 15:33N 31°22' E 121°30'2523.4
2015-May-22 14:28N 30°59' E 121°19'2360.7
2015-May-22 14:05N 31°18' E 121°34'3 4.5
2015-May-22 13:31N 31°20' E 121°33'4 3.8
2015-May-22 12:32N 31°23' E 121°30'6 6.5
2015-May-22 11:33N 31°29' E 121°26'7 6.7
2015-May-22 10:33N 31°34' E 121°22'4 4.4
2015-May-22 09:33N 31°38' E 121°21'0 0.2
2015-May-22 08:33N 31°39' E 121°21'0 0.0
2015-May-22 07:33N 31°39' E 121°21'0 0.0
2015-May-22 06:33N 31°39' E 121°21'0 0.0
2015-May-22 05:34N 31°39' E 121°21'949.3
2015-May-22 05:22N 31°29' E 121°24'911.7
2015-May-22 04:33N 31°39' E 121°21'0 0.0
2015-May-22 03:33N 31°39' E 121°21'0 0.0
2015-May-22 02:33N 31°39' E 121°21'0 0.0
2015-May-22 01:33N 31°39' E 121°21'25114.2
2015-May-22 01:20N 31°15' E 121°30'2532.0
2015-May-22 00:33N 31°39' E 121°21'117 7.2
2015-May-21 08:13N 29°47' E 122°04'7 9.0
2015-May-21 07:28N 29°53' E 122°09'7 7.9
2015-May-21 06:33N 29°58' E 122°03'7311.4
2015-May-21 00:08N 31°05' E 121°28'28 7.1
2015-May-20 20:15N 31°05' E 122°00'6 8.6
2015-May-20 19:33N 31°08' E 121°54'7 6.7
2015-May-20 18:33N 31°12' E 121°48'1 1.1
2015-May-20 17:33N 31°13' E 121°47'0 0.0
2015-May-20 16:33N 31°13' E 121°47'1 0.8
2015-May-20 15:33N 31°14' E 121°47'5 5.2
2015-May-20 14:32N 31°18' E 121°43'8 8.1
2015-May-20 13:32N 31°23' E 121°35'5926.5
2015-May-20 11:18N 32°00' E 120°41'47354.1
2015-May-20 02:33N 24°26' E 118°10'6 5.6
2015-May-20 01:33N 24°30' E 118°15'8 6.5
2015-May-20 00:15N 24°32' E 118°24'42955.7
2015-May-19 16:33N 31°09' E 121°27'6 4.9
2015-May-19 15:22N 31°15' E 121°30'4 4.7
2015-May-19 14:29N 31°17' E 121°34'6 3.2
2015-May-19 12:33N 31°22' E 121°30'4 3.8
2015-May-19 11:28N 31°26' E 121°29'8113.6
2015-May-19 05:31N 31°58' E 120°02'7273.2
2015-May-19 04:33N 31°33' E 121°21'6816383.6
2015-May-19 04:32N 31°58' E 120°06'3 3.1
2015-May-19 03:34N 31°57' E 120°10'37811.9
2015-May-19 03:31N 31°54' E 120°53'40187.1
2015-May-19 03:18N 31°28' E 121°28'4864.8
2015-May-19 02:34N 32°00' E 120°47'324617.2
2015-May-19 02:33N 31°57' E 120°10'773626.4
2015-May-19 02:32N 31°23' E 121°30'7778.3
2015-May-19 01:33N 31°57' E 120°10'0 0.0
2015-May-19 00:33N 31°57' E 120°10'0 0.0
2015-May-18 23:32N 31°57' E 120°10'8112223.3
2015-May-18 23:32N 31°10' E 121°28'8283.6
2015-May-18 22:33N 31°57' E 120°09'87225.8
2015-May-18 22:10N 31°01' E 121°27'87141.8
2015-May-18 21:33N 31°57' E 120°09'0 0.0
2015-May-18 20:34N 31°57' E 120°09'4 4.4
2015-May-18 19:33N 31°57' E 120°15'7636.0
2015-May-18 17:27N 31°26' E 121°36'7381.2
2015-May-18 16:32N 31°57' E 120°18'11139.6
2015-May-18 16:27N 32°01' E 120°31'1920.8
2015-May-18 15:33N 31°56' E 120°10'8382.7
2015-May-18 14:33N 30°59' E 121°20'7013.7
2015-May-18 09:28N 32°01' E 120°43'5 4.7
2015-May-18 08:28N 32°01' E 120°49'7 5.6
2015-May-18 07:11N 31°55' E 120°53'5 6.7
2015-May-18 06:24N 31°49' E 120°55'21 7.4
2015-May-18 03:33N 31°38' E 121°16'3232.7
2015-May-18 02:33N 31°17' E 121°45'266699.7
2015-May-18 02:33N 31°33' E 121°21'3535.0
2015-May-18 01:33N 31°10' E 121°52'30403.7
2015-May-18 01:29N 31°30' E 121°26'3 3.2
2015-May-18 00:33N 31°28' E 121°28'2 2.4
2015-May-17 23:33N 31°26' E 121°29'0 0.0
2015-May-17 22:33N 31°26' E 121°29'0 0.0
2015-May-17 21:33N 31°26' E 121°29'0 0.0
2015-May-17 20:33N 31°26' E 121°29'0 0.0
2015-May-17 19:33N 31°26' E 121°29'0 0.0
2015-May-17 18:33N 31°26' E 121°29'0 0.0
2015-May-17 17:33N 31°26' E 121°29'0 0.0
2015-May-17 16:33N 31°26' E 121°29'0 0.0
2015-May-17 15:33N 31°26' E 121°29'0 0.0
2015-May-17 14:33N 31°26' E 121°29'0 0.0
2015-May-17 13:33N 31°26' E 121°29'0 0.0
2015-May-17 12:32N 31°26' E 121°29'0 0.0
2015-May-17 11:33N 31°26' E 121°29'0 0.0
2015-May-17 10:33N 31°26' E 121°29'0 0.0
2015-May-17 09:32N 31°26' E 121°29'0 0.0
2015-May-17 08:31N 31°26' E 121°29'0 0.0
2015-May-17 07:33N 31°26' E 121°29'0 0.0
2015-May-17 06:33N 31°26' E 121°29'0 0.0
2015-May-17 05:33N 31°26' E 121°29'0 0.0
2015-May-17 04:33N 31°26' E 121°29'0 0.0
2015-May-17 03:32N 31°26' E 121°29'0 0.0
2015-May-17 02:30N 31°26' E 121°29'316.3
2015-May-17 02:17N 31°25' E 121°33'3 4.6
2015-May-17 01:33N 31°26' E 121°29'1918.9
2015-May-17 00:33N 31°15' E 121°47'192501.3
2015-May-17 00:33N 31°26' E 121°29'0 0.0
2015-May-16 23:33N 31°26' E 121°29'27892.7
2015-May-16 23:31N 31°09' E 121°54'2727.9
2015-May-16 22:33N 31°26' E 121°29'2 1.7
2015-May-16 21:16N 31°24' E 121°31'4 5.2
2015-May-16 20:32N 31°22' E 121°28'0 0.0
2015-May-16 19:33N 31°22' E 121°28'0 0.0
2015-May-16 18:33N 31°22' E 121°28'0 0.0
2015-May-16 17:32N 31°22' E 121°28'0 0.0
2015-May-16 16:32N 31°22' E 121°28'0 0.0
2015-May-16 15:33N 31°22' E 121°28'0 0.1
2015-May-16 14:31N 31°22' E 121°28'0 0.4
2015-May-16 13:33N 31°21' E 121°27'0 0.0
2015-May-16 12:33N 31°21' E 121°27'0 0.0
2015-May-16 11:33N 31°21' E 121°27'0 0.0
2015-May-16 10:33N 31°21' E 121°27'0 0.0
2015-May-16 09:33N 31°21' E 121°27'86376.3
2015-May-16 09:20N 29°58' E 121°50'86111.3
2015-May-16 08:33N 31°21' E 121°27'0 0.0
2015-May-16 07:33N 31°21' E 121°27'36807.9
2015-May-16 07:30N 31°03' E 122°03'1111.2
2015-May-16 06:33N 31°09' E 121°53'2545433.9
2015-May-16 06:33N 31°21' E 121°27'0 0.1
2015-May-16 05:33N 31°21' E 121°27'0 0.0
2015-May-16 04:33N 31°21' E 121°27'0 0.0
2015-May-16 03:33N 31°21' E 121°27'1 0.7
2015-May-16 02:33N 31°22' E 121°28'3 3.3
2015-May-16 01:31N 31°24' E 121°31'0 0.0
2015-May-16 00:33N 31°24' E 121°31'14359.1
2015-May-16 00:30N 31°17' E 121°44'0 0.0
2015-May-15 23:33N 31°17' E 121°44'141516.7
2015-May-15 23:33N 31°24' E 121°31'9394.6
2015-May-15 22:33N 29°56' E 122°05'9686180.2
2015-May-15 22:33N 31°26' E 121°29'7 7.3
2015-May-15 21:33N 31°31' E 121°22'109281.4
2015-May-15 21:10N 29°48' E 122°05'119123.6
2015-May-15 20:12N 31°38' E 121°14'2373402.6
2015-May-15 14:18N 31°50' E 167°44'23861143.8
2015-May-15 12:13N 31°50' E 120°56'35591.7
2015-May-15 08:21N 37°44' E 121°20'7 3.1
2015-May-15 06:10N 37°47' E 121°28'6 1.9
2015-May-15 03:08N 37°50' E 121°22'35396.6
2015-May-14 23:29N 31°57' E 120°51'352968.4
2015-May-14 23:07N 37°48' E 121°22'349615.6
2015-May-14 22:33N 32°00' E 120°46'19 6.2
2015-May-14 19:30N 31°60' E 120°23'5 5.0
2015-May-14 18:33N 31°58' E 120°19'5 4.6
2015-May-14 17:33N 31°56' E 120°14'4 4.4
2015-May-14 16:33N 31°56' E 120°08'4841724.8
2015-May-14 16:17N 24°03' E 118°08'485637.2
2015-May-14 15:31N 31°58' E 120°02'48318311.5
2015-May-14 15:29N 24°04' E 118°11'  

Dump ship's entire track history